KELK/ELK METAR and TAF weather

Enter ICAO airport designator
Station Type Date Time Source
KELK METAR 2020/07/07 09:35 UTC NOAA

KELK 070935Z AUTO 00000KT 7SM CLR 21/21 A3000 RMK AO2 T02100210


Station Type Date Time Source
KELK Decoded METAR 2020/07/07 09:35 UTC NOAA

Station name not available
Jul 07, 2020 - 05:35 AM EDT / 2020.07.07 0935 UTC
Wind: Calm:0
Visibility: 7 mile(s):0
Sky conditions: clear
Temperature: 69.8 F (21.0 C)
Dew Point: 69.8 F (21.0 C)
Relative Humidity: 100%
Pressure (altimeter): 30 in. Hg (1015 hPa)
ob: KELK 070935Z AUTO 00000KT 7SM CLR 21/21 A3000 RMK AO2 T02100210
cycle: 9

Station Type Date Time Source
KELK TAF UTC NOAA

Error!

Example: see airport list